sensor_id;sensor_type;location;lat;lon;timestamp;temperature;humidity
69503;SHT31;56704;54.242;12.442;2023-07-09T00:00:52;16.17;69.64
69503;SHT31;56704;54.242;12.442;2023-07-09T00:03:19;16.14;69.59
69503;SHT31;56704;54.242;12.442;2023-07-09T00:05:47;16.17;69.34
69503;SHT31;56704;54.242;12.442;2023-07-09T00:08:24;16.11;69.44
69503;SHT31;56704;54.242;12.442;2023-07-09T00:10:54;16.01;69.92
69503;SHT31;56704;54.242;12.442;2023-07-09T00:13:22;15.97;69.86
69503;SHT31;56704;54.242;12.442;2023-07-09T00:15:49;15.84;70.42
69503;SHT31;56704;54.242;12.442;2023-07-09T00:18:16;15.73;70.36
69503;SHT31;56704;54.242;12.442;2023-07-09T00:20:43;15.67;70.72
69503;SHT31;56704;54.242;12.442;2023-07-09T00:23:09;15.66;70.90
69503;SHT31;56704;54.242;12.442;2023-07-09T00:25:39;15.71;70.75
69503;SHT31;56704;54.242;12.442;2023-07-09T00:28:12;15.70;70.80
69503;SHT31;56704;54.242;12.442;2023-07-09T00:30:41;15.76;71.16
69503;SHT31;56704;54.242;12.442;2023-07-09T00:33:11;15.71;70.85
69503;SHT31;56704;54.242;12.442;2023-07-09T00:35:39;15.71;70.88
69503;SHT31;56704;54.242;12.442;2023-07-09T00:38:10;15.68;71.07
69503;SHT31;56704;54.242;12.442;2023-07-09T00:40:46;15.70;70.91
69503;SHT31;56704;54.242;12.442;2023-07-09T00:43:15;15.63;71.20
69503;SHT31;56704;54.242;12.442;2023-07-09T00:45:44;15.54;71.28
69503;SHT31;56704;54.242;12.442;2023-07-09T00:48:13;15.46;71.85
69503;SHT31;56704;54.242;12.442;2023-07-09T00:50:46;15.40;72.16
69503;SHT31;56704;54.242;12.442;2023-07-09T00:53:17;15.44;71.61
69503;SHT31;56704;54.242;12.442;2023-07-09T00:55:49;15.32;72.29
69503;SHT31;56704;54.242;12.442;2023-07-09T00:58:17;15.28;72.58
69503;SHT31;56704;54.242;12.442;2023-07-09T01:00:51;15.30;72.59
69503;SHT31;56704;54.242;12.442;2023-07-09T01:03:25;15.29;72.49
69503;SHT31;56704;54.242;12.442;2023-07-09T01:05:56;15.35;72.25
69503;SHT31;56704;54.242;12.442;2023-07-09T01:08:23;15.30;72.07
69503;SHT31;56704;54.242;12.442;2023-07-09T01:10:50;15.23;72.05
69503;SHT31;56704;54.242;12.442;2023-07-09T01:13:17;15.20;72.41
69503;SHT31;56704;54.242;12.442;2023-07-09T01:15:47;15.13;72.79
69503;SHT31;56704;54.242;12.442;2023-07-09T01:18:14;15.03;73.25
69503;SHT31;56704;54.242;12.442;2023-07-09T01:20:41;15.05;72.79
69503;SHT31;56704;54.242;12.442;2023-07-09T01:23:09;15.13;72.89
69503;SHT31;56704;54.242;12.442;2023-07-09T01:25:38;15.18;72.54
69503;SHT31;56704;54.242;12.442;2023-07-09T01:28:07;15.10;72.68
69503;SHT31;56704;54.242;12.442;2023-07-09T01:30:36;15.03;72.97
69503;SHT31;56704;54.242;12.442;2023-07-09T01:33:03;14.99;73.48
69503;SHT31;56704;54.242;12.442;2023-07-09T01:35:33;14.98;73.94
69503;SHT31;56704;54.242;12.442;2023-07-09T01:38:00;15.08;73.53
69503;SHT31;56704;54.242;12.442;2023-07-09T01:40:29;14.98;73.53
69503;SHT31;56704;54.242;12.442;2023-07-09T01:42:57;14.85;73.89
69503;SHT31;56704;54.242;12.442;2023-07-09T01:45:24;14.99;73.41
69503;SHT31;56704;54.242;12.442;2023-07-09T01:47:52;14.98;73.31
69503;SHT31;56704;54.242;12.442;2023-07-09T01:50:20;14.89;73.08
69503;SHT31;56704;54.242;12.442;2023-07-09T01:52:49;14.82;73.67
69503;SHT31;56704;54.242;12.442;2023-07-09T01:55:17;14.77;74.03
69503;SHT31;56704;54.242;12.442;2023-07-09T01:57:45;14.74;74.10
69503;SHT31;56704;54.242;12.442;2023-07-09T02:00:13;14.75;73.88
69503;SHT31;56704;54.242;12.442;2023-07-09T02:02:41;14.81;73.84
69503;SHT31;56704;54.242;12.442;2023-07-09T02:05:10;14.89;74.06
69503;SHT31;56704;54.242;12.442;2023-07-09T02:07:37;14.98;74.01
69503;SHT31;56704;54.242;12.442;2023-07-09T02:10:04;14.98;73.69
69503;SHT31;56704;54.242;12.442;2023-07-09T02:12:31;14.96;73.26
69503;SHT31;56704;54.242;12.442;2023-07-09T02:14:59;14.88;73.55
69503;SHT31;56704;54.242;12.442;2023-07-09T02:17:26;14.72;74.56
69503;SHT31;56704;54.242;12.442;2023-07-09T02:19:52;14.58;75.25
69503;SHT31;56704;54.242;12.442;2023-07-09T02:22:19;14.56;75.64
69503;SHT31;56704;54.242;12.442;2023-07-09T02:24:46;14.51;75.93
69503;SHT31;56704;54.242;12.442;2023-07-09T02:27:17;14.38;76.48
69503;SHT31;56704;54.242;12.442;2023-07-09T02:29:44;14.26;76.26
69503;SHT31;56704;54.242;12.442;2023-07-09T02:32:17;14.07;77.03
69503;SHT31;56704;54.242;12.442;2023-07-09T02:34:44;13.80;78.19
69503;SHT31;56704;54.242;12.442;2023-07-09T02:37:15;13.73;79.07
69503;SHT31;56704;54.242;12.442;2023-07-09T02:39:42;13.78;78.58
69503;SHT31;56704;54.242;12.442;2023-07-09T02:42:09;13.85;78.72
69503;SHT31;56704;54.242;12.442;2023-07-09T02:44:36;13.78;79.04
69503;SHT31;56704;54.242;12.442;2023-07-09T02:47:03;13.83;78.68
69503;SHT31;56704;54.242;12.442;2023-07-09T02:49:31;13.80;78.37
69503;SHT31;56704;54.242;12.442;2023-07-09T02:51:58;13.82;79.00
69503;SHT31;56704;54.242;12.442;2023-07-09T02:54:25;13.90;78.77
69503;SHT31;56704;54.242;12.442;2023-07-09T02:56:51;13.85;78.34
69503;SHT31;56704;54.242;12.442;2023-07-09T02:59:18;13.83;78.34
69503;SHT31;56704;54.242;12.442;2023-07-09T03:01:45;13.82;78.15
69503;SHT31;56704;54.242;12.442;2023-07-09T03:04:12;13.82;77.83
69503;SHT31;56704;54.242;12.442;2023-07-09T03:06:40;13.79;77.56
69503;SHT31;56704;54.242;12.442;2023-07-09T03:09:09;13.79;77.69
69503;SHT31;56704;54.242;12.442;2023-07-09T03:11:35;13.80;76.93
69503;SHT31;56704;54.242;12.442;2023-07-09T03:14:02;13.78;76.72
69503;SHT31;56704;54.242;12.442;2023-07-09T03:16:31;13.58;76.82
69503;SHT31;56704;54.242;12.442;2023-07-09T03:18:58;13.52;76.91
69503;SHT31;56704;54.242;12.442;2023-07-09T03:21:27;13.45;77.36
69503;SHT31;56704;54.242;12.442;2023-07-09T03:23:55;13.49;77.81
69503;SHT31;56704;54.242;12.442;2023-07-09T03:26:22;13.57;78.31
69503;SHT31;56704;54.242;12.442;2023-07-09T03:28:50;13.59;78.44
69503;SHT31;56704;54.242;12.442;2023-07-09T03:31:17;13.28;78.94
69503;SHT31;56704;54.242;12.442;2023-07-09T03:33:46;13.20;78.71
69503;SHT31;56704;54.242;12.442;2023-07-09T03:36:13;13.15;78.62
69503;SHT31;56704;54.242;12.442;2023-07-09T03:38:39;13.20;79.69
69503;SHT31;56704;54.242;12.442;2023-07-09T03:41:08;13.34;79.66
69503;SHT31;56704;54.242;12.442;2023-07-09T03:43:34;13.39;79.58
69503;SHT31;56704;54.242;12.442;2023-07-09T03:46:01;13.48;79.49
69503;SHT31;56704;54.242;12.442;2023-07-09T03:48:27;13.47;79.90
69503;SHT31;56704;54.242;12.442;2023-07-09T03:50:54;13.48;79.68
69503;SHT31;56704;54.242;12.442;2023-07-09T03:53:21;13.59;79.61
69503;SHT31;56704;54.242;12.442;2023-07-09T03:55:52;13.61;79.54
69503;SHT31;56704;54.242;12.442;2023-07-09T03:58:20;13.63;79.68
69503;SHT31;56704;54.242;12.442;2023-07-09T04:00:47;13.79;79.63
69503;SHT31;56704;54.242;12.442;2023-07-09T04:03:13;13.79;79.17
69503;SHT31;56704;54.242;12.442;2023-07-09T04:05:40;13.75;79.92
69503;SHT31;56704;54.242;12.442;2023-07-09T04:08:06;13.62;79.91
69503;SHT31;56704;54.242;12.442;2023-07-09T04:10:33;13.65;79.84
69503;SHT31;56704;54.242;12.442;2023-07-09T04:13:00;13.72;79.78
69503;SHT31;56704;54.242;12.442;2023-07-09T04:15:27;13.76;80.09
69503;SHT31;56704;54.242;12.442;2023-07-09T04:17:54;13.82;80.03
69503;SHT31;56704;54.242;12.442;2023-07-09T04:20:21;13.80;79.90
69503;SHT31;56704;54.242;12.442;2023-07-09T04:22:48;13.87;80.35
69503;SHT31;56704;54.242;12.442;2023-07-09T04:25:15;14.05;80.64
69503;SHT31;56704;54.242;12.442;2023-07-09T04:27:42;14.14;79.96
69503;SHT31;56704;54.242;12.442;2023-07-09T04:30:10;14.19;80.43
69503;SHT31;56704;54.242;12.442;2023-07-09T04:32:39;14.21;80.18
69503;SHT31;56704;54.242;12.442;2023-07-09T04:35:08;14.38;80.80
69503;SHT31;56704;54.242;12.442;2023-07-09T04:37:36;14.47;80.72
69503;SHT31;56704;54.242;12.442;2023-07-09T04:40:04;14.64;80.57
69503;SHT31;56704;54.242;12.442;2023-07-09T04:42:32;14.69;79.76
69503;SHT31;56704;54.242;12.442;2023-07-09T04:44:58;14.74;80.11
69503;SHT31;56704;54.242;12.442;2023-07-09T04:47:25;14.87;80.76
69503;SHT31;56704;54.242;12.442;2023-07-09T04:49:53;14.99;80.45
69503;SHT31;56704;54.242;12.442;2023-07-09T04:52:20;15.08;80.54
69503;SHT31;56704;54.242;12.442;2023-07-09T04:54:47;15.19;79.88
69503;SHT31;56704;54.242;12.442;2023-07-09T04:57:16;15.35;79.72
69503;SHT31;56704;54.242;12.442;2023-07-09T04:59:42;15.50;79.94
69503;SHT31;56704;54.242;12.442;2023-07-09T05:02:09;15.71;80.83
69503;SHT31;56704;54.242;12.442;2023-07-09T05:04:36;15.77;80.10
69503;SHT31;56704;54.242;12.442;2023-07-09T05:07:04;15.98;80.76
69503;SHT31;56704;54.242;12.442;2023-07-09T05:09:31;16.00;79.66
69503;SHT31;56704;54.242;12.442;2023-07-09T05:11:57;16.05;79.31
69503;SHT31;56704;54.242;12.442;2023-07-09T05:14:26;16.18;79.26
69503;SHT31;56704;54.242;12.442;2023-07-09T05:16:52;16.25;79.03
69503;SHT31;56704;54.242;12.442;2023-07-09T05:19:19;16.35;79.32
69503;SHT31;56704;54.242;12.442;2023-07-09T05:21:45;16.41;78.91
69503;SHT31;56704;54.242;12.442;2023-07-09T05:24:13;16.49;79.00
69503;SHT31;56704;54.242;12.442;2023-07-09T05:26:40;16.58;78.50
69503;SHT31;56704;54.242;12.442;2023-07-09T05:29:06;16.75;78.39
69503;SHT31;56704;54.242;12.442;2023-07-09T05:31:33;16.96;77.61
69503;SHT31;56704;54.242;12.442;2023-07-09T05:34:01;17.11;76.88
69503;SHT31;56704;54.242;12.442;2023-07-09T05:36:28;17.27;76.44
69503;SHT31;56704;54.242;12.442;2023-07-09T05:38:56;17.32;76.03
69503;SHT31;56704;54.242;12.442;2023-07-09T05:41:24;17.39;75.63
69503;SHT31;56704;54.242;12.442;2023-07-09T05:43:51;17.57;73.96
69503;SHT31;56704;54.242;12.442;2023-07-09T05:46:19;17.75;73.61
69503;SHT31;56704;54.242;12.442;2023-07-09T05:48:45;17.81;73.96
69503;SHT31;56704;54.242;12.442;2023-07-09T05:51:12;17.85;73.21
69503;SHT31;56704;54.242;12.442;2023-07-09T05:53:39;18.02;72.58
69503;SHT31;56704;54.242;12.442;2023-07-09T05:56:06;18.10;71.49
69503;SHT31;56704;54.242;12.442;2023-07-09T05:58:34;18.17;70.86
69503;SHT31;56704;54.242;12.442;2023-07-09T06:01:01;18.23;70.81
69503;SHT31;56704;54.242;12.442;2023-07-09T06:03:29;18.38;68.94
69503;SHT31;56704;54.242;12.442;2023-07-09T06:05:56;18.46;68.91
69503;SHT31;56704;54.242;12.442;2023-07-09T06:08:23;18.58;68.27
69503;SHT31;56704;54.242;12.442;2023-07-09T06:10:53;18.77;67.28
69503;SHT31;56704;54.242;12.442;2023-07-09T06:13:20;18.99;65.44
69503;SHT31;56704;54.242;12.442;2023-07-09T06:15:48;19.07;63.86
69503;SHT31;56704;54.242;12.442;2023-07-09T06:18:15;19.16;63.71
69503;SHT31;56704;54.242;12.442;2023-07-09T06:20:46;19.33;62.27
69503;SHT31;56704;54.242;12.442;2023-07-09T06:23:13;19.35;62.13
69503;SHT31;56704;54.242;12.442;2023-07-09T06:25:39;19.36;61.60
69503;SHT31;56704;54.242;12.442;2023-07-09T06:28:06;19.39;62.56
69503;SHT31;56704;54.242;12.442;2023-07-09T06:30:33;19.63;60.96
69503;SHT31;56704;54.242;12.442;2023-07-09T06:33:01;19.65;59.40
69503;SHT31;56704;54.242;12.442;2023-07-09T06:35:27;19.66;58.79
69503;SHT31;56704;54.242;12.442;2023-07-09T06:37:54;19.78;59.35
69503;SHT31;56704;54.242;12.442;2023-07-09T06:40:20;19.90;58.83
69503;SHT31;56704;54.242;12.442;2023-07-09T06:42:49;20.01;56.60
69503;SHT31;56704;54.242;12.442;2023-07-09T06:45:16;20.22;55.76
69503;SHT31;56704;54.242;12.442;2023-07-09T06:47:42;20.37;55.60
69503;SHT31;56704;54.242;12.442;2023-07-09T06:50:11;20.39;55.43
69503;SHT31;56704;54.242;12.442;2023-07-09T06:52:38;20.38;56.31
69503;SHT31;56704;54.242;12.442;2023-07-09T06:55:05;20.53;53.75
69503;SHT31;56704;54.242;12.442;2023-07-09T06:57:32;20.62;54.96
69503;SHT31;56704;54.242;12.442;2023-07-09T06:59:58;20.79;53.37
69503;SHT31;56704;54.242;12.442;2023-07-09T07:02:25;20.87;52.56
69503;SHT31;56704;54.242;12.442;2023-07-09T07:04:52;20.95;53.80
69503;SHT31;56704;54.242;12.442;2023-07-09T07:07:20;21.06;54.16
69503;SHT31;56704;54.242;12.442;2023-07-09T07:09:47;21.20;53.67
69503;SHT31;56704;54.242;12.442;2023-07-09T07:12:23;21.27;53.29
69503;SHT31;56704;54.242;12.442;2023-07-09T07:14:49;21.40;53.58
69503;SHT31;56704;54.242;12.442;2023-07-09T07:17:16;21.48;53.49
69503;SHT31;56704;54.242;12.442;2023-07-09T07:19:43;21.55;54.21
69503;SHT31;56704;54.242;12.442;2023-07-09T07:22:10;21.64;54.50
69503;SHT31;56704;54.242;12.442;2023-07-09T07:24:38;21.82;53.65
69503;SHT31;56704;54.242;12.442;2023-07-09T07:27:05;21.94;54.62
69503;SHT31;56704;54.242;12.442;2023-07-09T07:29:31;22.19;53.39
69503;SHT31;56704;54.242;12.442;2023-07-09T07:31:58;22.42;52.98
69503;SHT31;56704;54.242;12.442;2023-07-09T07:34:26;22.68;50.39
69503;SHT31;56704;54.242;12.442;2023-07-09T07:36:52;23.01;50.90
69503;SHT31;56704;54.242;12.442;2023-07-09T07:39:19;23.34;49.53
69503;SHT31;56704;54.242;12.442;2023-07-09T07:41:47;23.67;47.97
69503;SHT31;56704;54.242;12.442;2023-07-09T07:44:16;24.21;48.33
69503;SHT31;56704;54.242;12.442;2023-07-09T07:46:42;24.35;45.58
69503;SHT31;56704;54.242;12.442;2023-07-09T07:49:10;24.53;44.58
69503;SHT31;56704;54.242;12.442;2023-07-09T07:51:36;24.85;44.58
69503;SHT31;56704;54.242;12.442;2023-07-09T07:54:04;25.18;43.29
69503;SHT31;56704;54.242;12.442;2023-07-09T07:56:31;25.26;44.17
69503;SHT31;56704;54.242;12.442;2023-07-09T07:58:59;25.33;42.04
69503;SHT31;56704;54.242;12.442;2023-07-09T08:01:26;25.59;41.51
69503;SHT31;56704;54.242;12.442;2023-07-09T08:03:53;26.00;41.17
69503;SHT31;56704;54.242;12.442;2023-07-09T08:06:19;26.24;38.99
69503;SHT31;56704;54.242;12.442;2023-07-09T08:08:46;26.70;39.38
69503;SHT31;56704;54.242;12.442;2023-07-09T08:11:14;26.62;38.27
69503;SHT31;56704;54.242;12.442;2023-07-09T08:13:41;26.66;37.49
69503;SHT31;56704;54.242;12.442;2023-07-09T08:16:09;26.43;35.83
69503;SHT31;56704;54.242;12.442;2023-07-09T08:18:37;26.68;36.55
69503;SHT31;56704;54.242;12.442;2023-07-09T08:21:03;26.72;37.48
69503;SHT31;56704;54.242;12.442;2023-07-09T08:23:30;26.78;38.49
69503;SHT31;56704;54.242;12.442;2023-07-09T08:25:58;26.96;35.51
69503;SHT31;56704;54.242;12.442;2023-07-09T08:28:27;26.93;34.62
69503;SHT31;56704;54.242;12.442;2023-07-09T08:30:54;27.10;35.35
69503;SHT31;56704;54.242;12.442;2023-07-09T08:33:23;27.04;34.71
69503;SHT31;56704;54.242;12.442;2023-07-09T08:35:51;27.15;34.50
69503;SHT31;56704;54.242;12.442;2023-07-09T08:38:18;26.72;32.98
69503;SHT31;56704;54.242;12.442;2023-07-09T08:40:54;26.63;33.12
69503;SHT31;56704;54.242;12.442;2023-07-09T08:43:46;26.90;34.29
69503;SHT31;56704;54.242;12.442;2023-07-09T08:46:20;27.06;33.54
69503;SHT31;56704;54.242;12.442;2023-07-09T08:48:54;26.99;32.96
69503;SHT31;56704;54.242;12.442;2023-07-09T08:51:25;27.10;33.71
69503;SHT31;56704;54.242;12.442;2023-07-09T08:53:56;27.26;33.19
69503;SHT31;56704;54.242;12.442;2023-07-09T08:56:24;27.04;33.20
69503;SHT31;56704;54.242;12.442;2023-07-09T08:58:55;27.17;33.02
69503;SHT31;56704;54.242;12.442;2023-07-09T09:01:26;27.07;31.66
69503;SHT31;56704;54.242;12.442;2023-07-09T09:03:59;27.31;30.19
69503;SHT31;56704;54.242;12.442;2023-07-09T09:06:29;27.27;29.47
69503;SHT31;56704;54.242;12.442;2023-07-09T09:09:04;27.72;30.09
69503;SHT31;56704;54.242;12.442;2023-07-09T09:11:42;27.73;29.36
69503;SHT31;56704;54.242;12.442;2023-07-09T09:14:22;27.93;32.11
69503;SHT31;56704;54.242;12.442;2023-07-09T09:16:51;28.03;32.92
69503;SHT31;56704;54.242;12.442;2023-07-09T09:19:23;27.88;32.18
69503;SHT31;56704;54.242;12.442;2023-07-09T09:21:56;27.98;30.23
69503;SHT31;56704;54.242;12.442;2023-07-09T09:24:27;28.12;30.78
69503;SHT31;56704;54.242;12.442;2023-07-09T09:26:57;28.06;30.53
69503;SHT31;56704;54.242;12.442;2023-07-09T09:29:25;28.06;30.90
69503;SHT31;56704;54.242;12.442;2023-07-09T09:31:54;28.06;31.31
69503;SHT31;56704;54.242;12.442;2023-07-09T09:34:26;28.16;31.82
69503;SHT31;56704;54.242;12.442;2023-07-09T09:36:53;27.86;31.17
69503;SHT31;56704;54.242;12.442;2023-07-09T09:39:22;28.22;31.80
69503;SHT31;56704;54.242;12.442;2023-07-09T09:41:51;28.19;31.21
69503;SHT31;56704;54.242;12.442;2023-07-09T09:44:19;28.09;31.04
69503;SHT31;56704;54.242;12.442;2023-07-09T09:46:48;28.24;31.47
69503;SHT31;56704;54.242;12.442;2023-07-09T09:49:16;28.47;31.16
69503;SHT31;56704;54.242;12.442;2023-07-09T09:51:46;28.80;31.15
69503;SHT31;56704;54.242;12.442;2023-07-09T09:54:17;28.82;30.61
69503;SHT31;56704;54.242;12.442;2023-07-09T09:56:44;28.88;30.42
69503;SHT31;56704;54.242;12.442;2023-07-09T09:59:17;28.88;29.48
69503;SHT31;56704;54.242;12.442;2023-07-09T10:01:44;28.81;30.03
69503;SHT31;56704;54.242;12.442;2023-07-09T10:04:16;28.88;30.93
69503;SHT31;56704;54.242;12.442;2023-07-09T10:06:47;29.11;31.02
69503;SHT31;56704;54.242;12.442;2023-07-09T10:09:35;29.39;30.86
69503;SHT31;56704;54.242;12.442;2023-07-09T10:12:14;29.55;30.82
69503;SHT31;56704;54.242;12.442;2023-07-09T10:14:49;29.59;30.26
69503;SHT31;56704;54.242;12.442;2023-07-09T10:17:23;29.76;29.73
69503;SHT31;56704;54.242;12.442;2023-07-09T10:19:58;29.83;29.19
69503;SHT31;56704;54.242;12.442;2023-07-09T10:22:38;29.97;29.35
69503;SHT31;56704;54.242;12.442;2023-07-09T10:25:13;29.83;29.77
69503;SHT31;56704;54.242;12.442;2023-07-09T10:27:52;30.16;29.38
69503;SHT31;56704;54.242;12.442;2023-07-09T10:30:39;30.20;29.07
69503;SHT31;56704;54.242;12.442;2023-07-09T10:33:09;30.07;28.37
69503;SHT31;56704;54.242;12.442;2023-07-09T10:35:41;30.06;28.58
69503;SHT31;56704;54.242;12.442;2023-07-09T10:38:30;30.23;28.59
69503;SHT31;56704;54.242;12.442;2023-07-09T10:41:00;30.25;28.09
69503;SHT31;56704;54.242;12.442;2023-07-09T10:43:33;30.04;28.12
69503;SHT31;56704;54.242;12.442;2023-07-09T10:46:05;30.00;28.18
69503;SHT31;56704;54.242;12.442;2023-07-09T10:48:39;30.34;28.32
69503;SHT31;56704;54.242;12.442;2023-07-09T10:51:21;30.58;28.49
69503;SHT31;56704;54.242;12.442;2023-07-09T10:53:52;30.95;27.83
69503;SHT31;56704;54.242;12.442;2023-07-09T10:56:25;31.15;27.72
69503;SHT31;56704;54.242;12.442;2023-07-09T10:58:56;31.22;27.46
69503;SHT31;56704;54.242;12.442;2023-07-09T11:01:29;31.39;26.89
69503;SHT31;56704;54.242;12.442;2023-07-09T11:04:00;31.47;26.27
69503;SHT31;56704;54.242;12.442;2023-07-09T11:06:33;31.43;25.10
69503;SHT31;56704;54.242;12.442;2023-07-09T11:09:06;31.58;26.84
69503;SHT31;56704;54.242;12.442;2023-07-09T11:11:40;31.64;26.28
69503;SHT31;56704;54.242;12.442;2023-07-09T11:14:15;31.76;26.63
69503;SHT31;56704;54.242;12.442;2023-07-09T11:16:46;31.85;26.94
69503;SHT31;56704;54.242;12.442;2023-07-09T11:19:17;31.91;25.79
69503;SHT31;56704;54.242;12.442;2023-07-09T11:21:56;32.07;26.51
69503;SHT31;56704;54.242;12.442;2023-07-09T11:24:34;32.14;26.05
69503;SHT31;56704;54.242;12.442;2023-07-09T11:27:01;32.39;27.30
69503;SHT31;56704;54.242;12.442;2023-07-09T11:29:28;32.66;27.70
69503;SHT31;56704;54.242;12.442;2023-07-09T11:31:55;32.76;27.14
69503;SHT31;56704;54.242;12.442;2023-07-09T11:34:33;32.99;28.33
69503;SHT31;56704;54.242;12.442;2023-07-09T11:37:00;33.16;27.00
69503;SHT31;56704;54.242;12.442;2023-07-09T11:39:29;33.31;26.15
69503;SHT31;56704;54.242;12.442;2023-07-09T11:41:58;33.41;25.71
69503;SHT31;56704;54.242;12.442;2023-07-09T11:44:27;33.44;24.54
69503;SHT31;56704;54.242;12.442;2023-07-09T11:47:04;33.47;24.35
69503;SHT31;56704;54.242;12.442;2023-07-09T11:50:16;33.33;23.50
69503;SHT31;56704;54.242;12.442;2023-07-09T11:52:51;33.48;24.68
69503;SHT31;56704;54.242;12.442;2023-07-09T11:55:26;33.64;24.28
69503;SHT31;56704;54.242;12.442;2023-07-09T11:57:55;33.92;24.13
69503;SHT31;56704;54.242;12.442;2023-07-09T12:00:23;33.95;24.13
69503;SHT31;56704;54.242;12.442;2023-07-09T12:02:50;33.98;23.39
69503;SHT31;56704;54.242;12.442;2023-07-09T12:05:21;34.06;24.21
69503;SHT31;56704;54.242;12.442;2023-07-09T12:07:48;33.96;25.14
69503;SHT31;56704;54.242;12.442;2023-07-09T12:10:21;34.02;25.56
69503;SHT31;56704;54.242;12.442;2023-07-09T12:12:52;34.15;26.38
69503;SHT31;56704;54.242;12.442;2023-07-09T12:15:22;34.02;27.01
69503;SHT31;56704;54.242;12.442;2023-07-09T12:17:54;34.26;25.57
69503;SHT31;56704;54.242;12.442;2023-07-09T12:20:21;34.32;24.93
69503;SHT31;56704;54.242;12.442;2023-07-09T12:22:47;34.39;25.65
69503;SHT31;56704;54.242;12.442;2023-07-09T12:25:20;34.61;24.27
69503;SHT31;56704;54.242;12.442;2023-07-09T12:27:47;34.76;24.63
69503;SHT31;56704;54.242;12.442;2023-07-09T12:30:14;34.77;24.43
69503;SHT31;56704;54.242;12.442;2023-07-09T12:32:46;34.61;23.62
69503;SHT31;56704;54.242;12.442;2023-07-09T12:35:15;34.91;22.93
69503;SHT31;56704;54.242;12.442;2023-07-09T12:37:44;34.86;22.15
69503;SHT31;56704;54.242;12.442;2023-07-09T12:40:15;34.57;22.43
69503;SHT31;56704;54.242;12.442;2023-07-09T12:42:43;34.54;23.03
69503;SHT31;56704;54.242;12.442;2023-07-09T12:45:16;34.31;22.79
69503;SHT31;56704;54.242;12.442;2023-07-09T12:47:45;34.57;22.31
69503;SHT31;56704;54.242;12.442;2023-07-09T12:50:21;34.46;22.22
69503;SHT31;56704;54.242;12.442;2023-07-09T12:52:48;34.60;23.11
69503;SHT31;56704;54.242;12.442;2023-07-09T12:55:20;34.79;22.72
69503;SHT31;56704;54.242;12.442;2023-07-09T12:57:47;34.13;22.38
69503;SHT31;56704;54.242;12.442;2023-07-09T13:00:14;34.32;22.71
69503;SHT31;56704;54.242;12.442;2023-07-09T13:02:41;34.40;22.45
69503;SHT31;56704;54.242;12.442;2023-07-09T13:05:20;34.39;22.26
69503;SHT31;56704;54.242;12.442;2023-07-09T13:07:49;34.63;22.54
69503;SHT31;56704;54.242;12.442;2023-07-09T13:10:19;34.68;22.96
69503;SHT31;56704;54.242;12.442;2023-07-09T13:12:48;34.93;23.37
69503;SHT31;56704;54.242;12.442;2023-07-09T13:15:29;34.53;22.59
69503;SHT31;56704;54.242;12.442;2023-07-09T13:18:03;34.56;22.76
69503;SHT31;56704;54.242;12.442;2023-07-09T13:20:34;34.80;23.78
69503;SHT31;56704;54.242;12.442;2023-07-09T13:23:09;34.59;23.08
69503;SHT31;56704;54.242;12.442;2023-07-09T13:25:38;34.13;23.20
69503;SHT31;56704;54.242;12.442;2023-07-09T13:28:04;34.15;23.94
69503;SHT31;56704;54.242;12.442;2023-07-09T13:30:31;34.05;24.89
69503;SHT31;56704;54.242;12.442;2023-07-09T13:32:58;34.22;25.54
69503;SHT31;56704;54.242;12.442;2023-07-09T13:35:25;34.19;25.53
69503;SHT31;56704;54.242;12.442;2023-07-09T13:37:53;34.36;25.81
69503;SHT31;56704;54.242;12.442;2023-07-09T13:40:20;34.29;25.09
69503;SHT31;56704;54.242;12.442;2023-07-09T13:42:47;34.19;25.43
69503;SHT31;56704;54.242;12.442;2023-07-09T13:45:20;34.16;25.88
69503;SHT31;56704;54.242;12.442;2023-07-09T13:47:47;33.99;25.46
69503;SHT31;56704;54.242;12.442;2023-07-09T13:50:15;34.06;25.27
69503;SHT31;56704;54.242;12.442;2023-07-09T13:52:42;34.35;26.15
69503;SHT31;56704;54.242;12.442;2023-07-09T13:55:17;34.40;25.85
69503;SHT31;56704;54.242;12.442;2023-07-09T13:57:44;34.36;26.11
69503;SHT31;56704;54.242;12.442;2023-07-09T14:00:11;34.23;24.91
69503;SHT31;56704;54.242;12.442;2023-07-09T14:02:38;34.10;24.71
69503;SHT31;56704;54.242;12.442;2023-07-09T14:05:08;34.09;24.38
69503;SHT31;56704;54.242;12.442;2023-07-09T14:07:38;34.31;24.83
69503;SHT31;56704;54.242;12.442;2023-07-09T14:10:07;34.42;24.54
69503;SHT31;56704;54.242;12.442;2023-07-09T14:12:39;34.35;24.81
69503;SHT31;56704;54.242;12.442;2023-07-09T14:15:13;34.26;24.75
69503;SHT31;56704;54.242;12.442;2023-07-09T14:17:40;34.36;25.40
69503;SHT31;56704;54.242;12.442;2023-07-09T14:20:08;34.19;23.80
69503;SHT31;56704;54.242;12.442;2023-07-09T14:22:37;33.96;24.15
69503;SHT31;56704;54.242;12.442;2023-07-09T14:25:05;33.86;24.33
69503;SHT31;56704;54.242;12.442;2023-07-09T14:27:32;33.96;24.56
69503;SHT31;56704;54.242;12.442;2023-07-09T14:30:00;34.03;25.34
69503;SHT31;56704;54.242;12.442;2023-07-09T14:32:36;34.08;24.76
69503;SHT31;56704;54.242;12.442;2023-07-09T14:35:10;33.65;24.32
69503;SHT31;56704;54.242;12.442;2023-07-09T14:37:37;33.65;23.83
69503;SHT31;56704;54.242;12.442;2023-07-09T14:40:05;33.66;24.56
69503;SHT31;56704;54.242;12.442;2023-07-09T14:42:32;33.89;24.64
69503;SHT31;56704;54.242;12.442;2023-07-09T14:45:00;33.99;25.99
69503;SHT31;56704;54.242;12.442;2023-07-09T14:47:28;33.99;26.59
69503;SHT31;56704;54.242;12.442;2023-07-09T14:49:55;33.65;23.89
69503;SHT31;56704;54.242;12.442;2023-07-09T14:52:22;33.84;24.95
69503;SHT31;56704;54.242;12.442;2023-07-09T14:54:48;33.78;26.26
69503;SHT31;56704;54.242;12.442;2023-07-09T14:57:19;33.54;24.27
69503;SHT31;56704;54.242;12.442;2023-07-09T14:59:46;33.58;24.54
69503;SHT31;56704;54.242;12.442;2023-07-09T15:02:30;33.50;23.91
69503;SHT31;56704;54.242;12.442;2023-07-09T15:04:57;33.48;24.09
69503;SHT31;56704;54.242;12.442;2023-07-09T15:07:24;33.44;24.18
69503;SHT31;56704;54.242;12.442;2023-07-09T15:09:55;33.53;24.08
69503;SHT31;56704;54.242;12.442;2023-07-09T15:12:25;33.53;24.37
69503;SHT31;56704;54.242;12.442;2023-07-09T15:15:03;33.34;24.77
69503;SHT31;56704;54.242;12.442;2023-07-09T15:17:33;33.31;25.17
69503;SHT31;56704;54.242;12.442;2023-07-09T15:20:00;33.31;24.24
69503;SHT31;56704;54.242;12.442;2023-07-09T15:22:30;33.11;24.27
69503;SHT31;56704;54.242;12.442;2023-07-09T15:24:57;33.11;24.37
69503;SHT31;56704;54.242;12.442;2023-07-09T15:27:24;33.16;24.81